createdAt,value
2019-02-17T00:01:57.153Z,98.90
2019-02-17T00:04:27.969Z,99.10
2019-02-17T00:07:00.668Z,99.00
2019-02-17T00:09:34.920Z,98.80
2019-02-17T00:12:09.259Z,98.80
2019-02-17T00:14:40.413Z,98.70
2019-02-17T00:17:13.361Z,99.00
2019-02-17T00:19:42.774Z,99.10
2019-02-17T00:22:11.200Z,99.50
2019-02-17T00:24:39.633Z,99.50
2019-02-17T00:27:08.050Z,99.60
2019-02-17T00:29:38.129Z,99.50
2019-02-17T00:32:14.331Z,99.70
2019-02-17T00:34:47.128Z,99.50
2019-02-17T00:37:17.253Z,99.40
2019-02-17T00:39:45.702Z,99.20
2019-02-17T00:42:19.694Z,99.20
2019-02-17T00:44:53.541Z,99.30
2019-02-17T00:47:27.705Z,99.40
2019-02-17T00:49:56.142Z,99.70
2019-02-17T00:52:27.322Z,99.90
2019-02-17T00:55:00.044Z,99.90
2019-02-17T00:57:37.503Z,99.90
2019-02-17T01:00:09.347Z,99.90
2019-02-17T01:02:37.773Z,99.90
2019-02-17T01:05:14.838Z,99.90
2019-02-17T01:07:47.578Z,99.90
2019-02-17T01:10:22.985Z,99.90
2019-02-17T01:12:54.821Z,99.90
2019-02-17T01:15:23.212Z,99.90
2019-02-17T01:18:00.409Z,99.90
2019-02-17T01:20:37.770Z,99.90
2019-02-17T01:23:11.569Z,99.90
2019-02-17T01:25:40.240Z,99.80
2019-02-17T01:28:20.081Z,99.70
2019-02-17T01:30:51.942Z,99.70
2019-02-17T01:33:21.409Z,99.70
2019-02-17T01:35:49.871Z,99.60
2019-02-17T01:38:21.189Z,99.70
2019-02-17T01:40:58.688Z,99.80
2019-02-17T01:43:31.545Z,99.70
2019-02-17T01:46:00.491Z,99.90
2019-02-17T01:48:34.318Z,99.90
2019-02-17T01:51:11.965Z,99.90
2019-02-17T01:53:42.021Z,99.80
2019-02-17T01:56:15.057Z,99.80
2019-02-17T01:58:46.121Z,99.90
2019-02-17T02:01:17.081Z,99.90
2019-02-17T02:03:53.835Z,99.90
2019-02-17T02:06:25.293Z,99.90
2019-02-17T02:09:01.267Z,99.90
2019-02-17T02:11:40.802Z,99.90
2019-02-17T02:14:16.745Z,99.90
2019-02-17T02:16:46.990Z,99.90
2019-02-17T02:19:19.762Z,99.90
2019-02-17T02:21:51.132Z,99.90
2019-02-17T02:24:25.661Z,99.90
2019-02-17T02:26:55.461Z,99.90
2019-02-17T02:29:23.886Z,99.90
2019-02-17T02:31:55.448Z,99.90
2019-02-17T02:34:29.675Z,99.90
2019-02-17T02:36:58.130Z,99.90
2019-02-17T02:39:29.394Z,99.90
2019-02-17T02:42:07.249Z,99.90
2019-02-17T02:44:38.561Z,99.90
2019-02-17T02:47:06.988Z,99.90
2019-02-17T02:49:35.417Z,99.90
2019-02-17T02:52:03.846Z,99.90
2019-02-17T02:54:33.913Z,99.90
2019-02-17T02:57:05.241Z,99.90
2019-02-17T02:59:39.049Z,99.90
2019-02-17T03:02:08.497Z,99.90
2019-02-17T03:04:36.908Z,99.90
2019-02-17T03:07:05.402Z,99.90
2019-02-17T03:09:36.799Z,99.90
2019-02-17T03:12:08.126Z,99.90
2019-02-17T03:14:36.808Z,99.90
2019-02-17T03:17:06.873Z,99.90
2019-02-17T03:19:41.001Z,99.90
2019-02-17T03:22:20.088Z,99.90
2019-02-17T03:24:57.456Z,99.90
2019-02-17T03:27:28.819Z,99.90
2019-02-17T03:30:05.004Z,99.90
2019-02-17T03:32:32.641Z,99.90
2019-02-17T03:35:02.725Z,99.90
2019-02-17T03:37:40.003Z,99.90
2019-02-17T03:40:12.649Z,99.90
2019-02-17T03:42:42.714Z,99.90
2019-02-17T03:45:17.571Z,99.90
2019-02-17T03:47:50.306Z,99.90
2019-02-17T03:50:25.290Z,99.90
2019-02-17T03:52:53.755Z,99.90
2019-02-17T03:55:26.248Z,99.90
2019-02-17T03:57:54.674Z,99.90
2019-02-17T04:00:40.390Z,99.90
2019-02-17T04:03:14.766Z,99.90
2019-02-17T04:05:45.842Z,99.90
2019-02-17T04:08:20.549Z,99.90
2019-02-17T04:10:56.678Z,99.90
2019-02-17T04:13:28.014Z,99.90
2019-02-17T04:15:59.603Z,99.90
2019-02-17T04:18:33.783Z,99.90
2019-02-17T04:21:02.216Z,99.90
2019-02-17T04:23:31.660Z,99.90
2019-02-17T04:26:12.553Z,99.90
2019-02-17T04:28:42.613Z,99.90
2019-02-17T04:31:12.673Z,99.90
2019-02-17T04:33:44.070Z,99.90
2019-02-17T04:36:16.800Z,99.90
2019-02-17T04:38:45.227Z,99.90
2019-02-17T04:41:16.313Z,99.90
2019-02-17T04:43:44.738Z,99.90
2019-02-17T04:46:20.450Z,99.90
2019-02-17T04:48:48.869Z,99.90
2019-02-17T04:51:19.954Z,99.90
2019-02-17T04:53:53.021Z,99.90
2019-02-17T04:56:25.803Z,99.90
2019-02-17T04:58:54.226Z,99.90
2019-02-17T05:01:26.134Z,99.90
2019-02-17T05:04:00.020Z,99.90
2019-02-17T05:06:31.369Z,99.90
2019-02-17T05:09:03.667Z,99.90
2019-02-17T05:11:37.899Z,99.90
2019-02-17T05:14:06.315Z,99.90
2019-02-17T05:16:35.747Z,99.90
2019-02-17T05:19:05.801Z,99.90
2019-02-17T05:21:34.229Z,99.90
2019-02-17T05:24:17.128Z,99.90
2019-02-17T05:26:51.719Z,99.90
2019-02-17T05:29:22.872Z,99.90
2019-02-17T05:31:51.298Z,99.90
2019-02-17T05:34:21.349Z,99.90
2019-02-17T05:36:51.663Z,99.90
2019-02-17T05:39:20.099Z,99.90
2019-02-17T05:41:54.163Z,99.90
2019-02-17T05:44:26.305Z,99.90
2019-02-17T05:46:54.803Z,99.90
2019-02-17T05:49:25.897Z,99.90
2019-02-17T05:51:56.150Z,99.90
2019-02-17T05:54:34.730Z,99.90
2019-02-17T05:57:03.304Z,99.90
2019-02-17T05:59:37.302Z,99.90
2019-02-17T06:02:11.118Z,99.90
2019-02-17T06:04:48.041Z,99.90
2019-02-17T06:07:19.416Z,99.90
2019-02-17T06:09:53.531Z,99.90
2019-02-17T06:12:23.640Z,99.90
2019-02-17T06:14:52.310Z,99.90
2019-02-17T06:17:20.743Z,99.90
2019-02-17T06:19:54.894Z,99.90
2019-02-17T06:22:23.322Z,99.90
2019-02-17T06:24:51.749Z,99.90
2019-02-17T06:27:21.823Z,99.90
2019-02-17T06:29:55.814Z,99.90
2019-02-17T06:32:29.565Z,99.90
2019-02-17T06:34:59.630Z,99.90
2019-02-17T06:37:28.094Z,99.90
2019-02-17T06:40:02.476Z,99.90
2019-02-17T06:42:35.507Z,99.90
2019-02-17T06:45:10.285Z,99.90
2019-02-17T06:47:40.430Z,99.90
2019-02-17T06:50:14.034Z,99.90
2019-02-17T06:52:45.125Z,99.90
2019-02-17T06:55:23.600Z,99.90
2019-02-17T06:57:52.101Z,99.90
2019-02-17T07:00:23.700Z,99.90
2019-02-17T07:03:01.194Z,99.90
2019-02-17T07:05:34.209Z,99.70
2019-02-17T07:08:02.809Z,99.70
2019-02-17T07:10:35.901Z,99.70
2019-02-17T07:13:13.017Z,99.90
2019-02-17T07:15:45.909Z,98.90
2019-02-17T07:18:11.585Z,94.60
2019-02-17T07:20:41.634Z,89.30
2019-02-17T07:23:15.520Z,78.20
2019-02-17T07:25:46.826Z,67.70
2019-02-17T07:28:21.289Z,59.80
2019-02-17T07:30:49.711Z,53.80
2019-02-17T07:33:28.178Z,50.20
2019-02-17T07:35:59.765Z,46.30
2019-02-17T07:38:33.892Z,43.00
2019-02-17T07:41:06.629Z,43.20
2019-02-17T07:43:37.884Z,40.00
2019-02-17T07:46:09.793Z,39.90
2019-02-17T07:48:38.323Z,39.10
2019-02-17T07:51:06.780Z,36.90
2019-02-17T07:53:37.905Z,35.10
2019-02-17T07:56:10.238Z,34.40
2019-02-17T07:58:38.662Z,33.80
2019-02-17T08:01:09.746Z,32.50
2019-02-17T08:03:38.174Z,31.20
2019-02-17T08:06:09.886Z,30.60
2019-02-17T08:08:41.010Z,29.60
2019-02-17T08:11:09.930Z,28.90
2019-02-17T08:13:44.160Z,28.10
2019-02-17T08:16:18.294Z,28.00
2019-02-17T08:18:46.717Z,28.00
2019-02-17T08:21:23.273Z,27.60
2019-02-17T08:23:57.033Z,26.80
2019-02-17T08:26:27.122Z,26.20
2019-02-17T08:28:55.541Z,26.30
2019-02-17T08:31:26.785Z,26.00
2019-02-17T08:34:05.515Z,26.00
2019-02-17T08:36:33.954Z,25.20
2019-02-17T08:39:05.485Z,24.80
2019-02-17T08:41:33.906Z,24.20
2019-02-17T08:44:04.974Z,23.80
2019-02-17T08:46:39.315Z,23.30
2019-02-17T08:49:09.391Z,23.60
2019-02-17T08:51:37.872Z,23.10
2019-02-17T08:54:12.198Z,22.70
2019-02-17T08:56:47.952Z,22.90
2019-02-17T08:59:21.694Z,22.00
2019-02-17T09:01:51.757Z,22.80
2019-02-17T09:04:25.846Z,22.40
2019-02-17T09:06:57.230Z,22.00
2019-02-17T09:09:25.648Z,22.50
2019-02-17T09:11:56.822Z,22.30
2019-02-17T09:14:25.233Z,21.90
2019-02-17T09:16:58.960Z,21.90
2019-02-17T09:19:32.234Z,21.70
2019-02-17T09:22:04.021Z,21.90
2019-02-17T09:24:38.256Z,21.40
2019-02-17T09:27:14.768Z,21.40
2019-02-17T09:29:57.577Z,21.10
2019-02-17T09:32:26.287Z,20.80
2019-02-17T09:34:58.722Z,20.80
2019-02-17T09:37:27.153Z,20.70
2019-02-17T09:39:58.371Z,20.60
2019-02-17T09:42:38.795Z,20.50
2019-02-17T09:45:17.785Z,20.50
2019-02-17T09:47:48.046Z,20.20
2019-02-17T09:50:33.971Z,20.50
2019-02-17T09:53:04.068Z,20.80
2019-02-17T09:55:32.489Z,21.00
2019-02-17T09:58:02.574Z,20.50
2019-02-17T10:00:33.650Z,20.60
2019-02-17T10:03:02.073Z,20.50
2019-02-17T10:05:33.594Z,20.40
2019-02-17T10:08:12.448Z,20.50
2019-02-17T10:10:41.314Z,20.70
2019-02-17T10:13:09.784Z,21.30
2019-02-17T10:15:49.547Z,21.10
2019-02-17T10:18:17.974Z,20.70
2019-02-17T10:20:59.259Z,20.90
2019-02-17T10:23:27.649Z,21.10
2019-02-17T10:25:58.714Z,21.50
2019-02-17T10:28:30.365Z,21.30
2019-02-17T10:30:58.850Z,21.40
2019-02-17T10:33:29.924Z,21.40
2019-02-17T10:36:00.997Z,21.30
2019-02-17T10:38:29.391Z,21.50
2019-02-17T10:40:57.827Z,21.40
2019-02-17T10:43:28.904Z,21.50
2019-02-17T10:45:57.353Z,21.30
2019-02-17T10:48:28.600Z,21.30
2019-02-17T10:51:02.949Z,21.30
2019-02-17T10:53:33.009Z,21.10
2019-02-17T10:56:01.444Z,20.80
2019-02-17T10:58:32.815Z,20.70
2019-02-17T11:01:04.397Z,21.10
2019-02-17T11:03:38.709Z,21.20
2019-02-17T11:06:08.786Z,20.70
2019-02-17T11:08:50.242Z,20.50
2019-02-17T11:11:18.794Z,20.00
2019-02-17T11:13:50.241Z,19.80
2019-02-17T11:16:24.413Z,20.10
2019-02-17T11:18:52.837Z,20.80
2019-02-17T11:21:26.630Z,21.70
2019-02-17T11:23:55.304Z,22.20
2019-02-17T11:26:26.624Z,23.10
2019-02-17T11:28:59.528Z,23.30
2019-02-17T11:31:31.644Z,23.40
2019-02-17T11:34:02.093Z,23.80
2019-02-17T11:36:30.492Z,23.80
2019-02-17T11:38:58.931Z,24.40
2019-02-17T11:41:31.928Z,24.40
2019-02-17T11:44:03.133Z,24.00
2019-02-17T11:46:31.819Z,23.70
2019-02-17T11:49:04.510Z,23.30
2019-02-17T11:51:32.021Z,23.10
2019-02-17T11:54:21.654Z,23.30
2019-02-17T11:56:51.838Z,23.40
2019-02-17T11:59:24.617Z,22.60
2019-02-17T12:01:55.945Z,22.20
2019-02-17T12:04:30.374Z,21.80
2019-02-17T12:07:07.419Z,21.60
2019-02-17T12:09:41.197Z,21.10
2019-02-17T12:12:15.060Z,21.60
2019-02-17T12:14:46.585Z,21.60
2019-02-17T12:19:56.474Z,22.60
2019-02-17T12:22:26.674Z,22.80
2019-02-17T12:24:57.110Z,23.30
2019-02-17T12:27:27.172Z,23.40
2019-02-17T12:30:06.818Z,25.20
2019-02-17T12:32:39.049Z,26.10
2019-02-17T12:35:12.126Z,27.10
2019-02-17T12:37:40.622Z,27.60
2019-02-17T12:40:14.695Z,28.10
2019-02-17T12:42:43.123Z,29.40
2019-02-17T12:45:18.247Z,30.00
2019-02-17T12:47:45.801Z,30.00
2019-02-17T12:50:19.741Z,30.60
2019-02-17T12:52:51.333Z,30.80
2019-02-17T12:55:30.789Z,31.30
2019-02-17T12:58:00.908Z,31.20
2019-02-17T13:00:31.997Z,31.90
2019-02-17T13:03:00.436Z,32.20
2019-02-17T13:05:32.401Z,32.50
2019-02-17T13:08:00.822Z,33.10
2019-02-17T13:10:36.521Z,33.40
2019-02-17T13:13:09.774Z,33.40
2019-02-17T13:15:44.070Z,33.70
2019-02-17T13:18:15.609Z,34.00
2019-02-17T13:20:46.821Z,34.40
2019-02-17T13:23:15.330Z,34.50
2019-02-17T13:25:43.761Z,34.40
2019-02-17T13:28:12.201Z,34.20
2019-02-17T13:30:53.984Z,35.10
2019-02-17T13:33:15.878Z,34.70
2019-02-17T13:35:50.354Z,34.90
2019-02-17T13:38:23.110Z,35.20
2019-02-17T13:40:57.019Z,35.20
2019-02-17T13:43:30.976Z,35.80
2019-02-17T13:45:59.418Z,35.60
2019-02-17T13:48:30.884Z,35.40
2019-02-17T13:51:08.594Z,35.70
2019-02-17T13:53:42.941Z,36.40
2019-02-17T13:56:13.004Z,36.80
2019-02-17T13:58:44.425Z,37.50
2019-02-17T14:01:12.855Z,38.10
2019-02-17T14:03:48.547Z,38.70
2019-02-17T14:06:11.672Z,38.60
2019-02-17T14:08:41.755Z,39.30
2019-02-17T14:11:12.872Z,40.20
2019-02-17T14:13:44.325Z,40.70
2019-02-17T14:16:15.457Z,41.30
2019-02-17T14:18:52.313Z,42.10
2019-02-17T14:21:20.751Z,43.00
2019-02-17T14:23:49.173Z,42.50
2019-02-17T14:26:20.337Z,43.10
2019-02-17T14:28:57.388Z,43.40
2019-02-17T14:31:25.826Z,44.00
2019-02-17T14:33:58.647Z,44.30
2019-02-17T14:36:24.402Z,44.70
2019-02-17T14:38:55.623Z,45.20
2019-02-17T14:41:26.982Z,46.00
2019-02-17T14:43:55.638Z,47.20
2019-02-17T14:46:25.821Z,48.70
2019-02-17T14:49:02.454Z,49.60
2019-02-17T14:51:32.202Z,50.20
2019-02-17T14:54:03.586Z,51.00
2019-02-17T14:56:32.807Z,51.70
2019-02-17T14:59:02.565Z,52.10
2019-02-17T15:01:31.117Z,52.40
2019-02-17T15:04:08.959Z,54.10
2019-02-17T15:06:36.759Z,55.20
2019-02-17T15:09:07.083Z,55.80
2019-02-17T15:11:38.241Z,56.40
2019-02-17T15:14:09.523Z,57.40
2019-02-17T15:16:38.181Z,58.60
2019-02-17T15:19:09.284Z,59.00
2019-02-17T15:21:37.731Z,59.80
2019-02-17T15:24:10.763Z,61.70
2019-02-17T15:26:40.830Z,62.50
2019-02-17T15:29:12.241Z,64.20
2019-02-17T15:31:52.562Z,65.80
2019-02-17T15:34:18.946Z,67.40
2019-02-17T15:36:47.107Z,69.50
2019-02-17T15:39:15.569Z,69.70
2019-02-17T15:41:46.945Z,71.80
2019-02-17T15:44:22.929Z,71.70
2019-02-17T15:46:51.493Z,72.70
2019-02-17T15:49:19.977Z,73.40
2019-02-17T15:51:50.139Z,74.00
2019-02-17T15:54:26.105Z,76.10
2019-02-17T15:57:05.906Z,76.50
2019-02-17T15:59:37.086Z,76.30
2019-02-17T16:02:05.564Z,77.80
2019-02-17T16:04:34.085Z,78.10
2019-02-17T16:07:02.634Z,78.70
2019-02-17T16:09:32.454Z,79.60
2019-02-17T16:12:02.522Z,80.30
2019-02-17T16:14:31.329Z,81.40
2019-02-17T16:17:02.806Z,81.50
2019-02-17T16:19:34.190Z,82.20
2019-02-17T16:22:05.829Z,82.20
2019-02-17T16:24:34.246Z,82.70
2019-02-17T16:27:05.703Z,83.30
2019-02-17T16:29:35.485Z,84.20
2019-02-17T16:32:04.110Z,85.00
2019-02-17T16:34:38.514Z,85.10
2019-02-17T16:37:07.125Z,86.00
2019-02-17T16:39:41.403Z,87.40
2019-02-17T16:42:18.470Z,87.20
2019-02-17T16:44:46.902Z,88.20
2019-02-17T16:47:15.315Z,88.60
2019-02-17T16:49:43.739Z,88.90
2019-02-17T16:52:15.109Z,89.50
2019-02-17T16:54:48.032Z,89.90
2019-02-17T16:57:19.133Z,89.90
2019-02-17T16:59:50.667Z,90.50
2019-02-17T17:02:27.445Z,90.60
2019-02-17T17:04:55.930Z,91.00
2019-02-17T17:07:31.598Z,91.20
2019-02-17T17:10:04.681Z,91.30
2019-02-17T17:12:35.734Z,91.60
2019-02-17T17:15:05.397Z,91.70
2019-02-17T17:17:42.598Z,91.40
2019-02-17T17:20:24.687Z,91.80
2019-02-17T17:22:53.093Z,92.40
2019-02-17T17:25:21.518Z,92.30
2019-02-17T17:27:49.954Z,92.10
2019-02-17T17:30:19.218Z,92.10
2019-02-17T17:32:50.660Z,92.80
2019-02-17T17:35:22.508Z,92.90
2019-02-17T17:37:51.468Z,92.90
2019-02-17T17:40:20.139Z,93.10
2019-02-17T17:42:54.134Z,93.20
2019-02-17T17:45:22.895Z,93.00
2019-02-17T17:47:54.442Z,92.80
2019-02-17T17:50:24.500Z,93.30
2019-02-17T17:52:58.635Z,93.40
2019-02-17T17:55:29.783Z,93.10
2019-02-17T17:57:58.311Z,93.40
2019-02-17T18:00:34.837Z,93.30
2019-02-17T18:03:08.770Z,93.50
2019-02-17T18:05:39.009Z,93.40
2019-02-17T18:08:15.446Z,93.40
2019-02-17T18:10:44.763Z,93.50
2019-02-17T18:13:14.880Z,93.70
2019-02-17T18:15:44.965Z,93.70
2019-02-17T18:18:16.419Z,93.90
2019-02-17T18:20:47.802Z,93.80
2019-02-17T18:23:17.858Z,93.90
2019-02-17T18:25:48.157Z,93.90
2019-02-17T18:28:22.081Z,94.10
2019-02-17T18:30:51.329Z,94.00
2019-02-17T18:33:25.619Z,94.50
2019-02-17T18:35:54.382Z,94.20
2019-02-17T18:38:22.797Z,94.50
2019-02-17T18:40:51.227Z,94.70
2019-02-17T18:43:19.657Z,94.80
2019-02-17T18:45:52.939Z,94.70
2019-02-17T18:48:26.021Z,94.50
2019-02-17T18:50:59.280Z,94.50
2019-02-17T18:53:26.469Z,94.80
2019-02-17T18:55:57.557Z,94.80
2019-02-17T18:58:28.653Z,94.80
2019-02-17T19:01:02.853Z,94.80
2019-02-17T19:03:31.274Z,95.20
2019-02-17T19:06:00.112Z,95.40
2019-02-17T19:08:34.353Z,95.40
2019-02-17T19:11:02.783Z,95.50
2019-02-17T19:13:37.549Z,95.50
2019-02-17T19:16:06.189Z,95.60
2019-02-17T19:18:34.937Z,95.30
2019-02-17T19:21:06.422Z,95.30
2019-02-17T19:23:34.840Z,95.60
2019-02-17T19:26:10.845Z,95.70
2019-02-17T19:28:40.970Z,95.70
2019-02-17T19:31:21.386Z,95.90
2019-02-17T19:33:57.489Z,95.80
2019-02-17T19:36:25.901Z,95.80
2019-02-17T19:38:57.887Z,96.00
2019-02-17T19:41:26.313Z,95.80
2019-02-17T19:43:54.745Z,95.90
2019-02-17T19:46:25.801Z,96.20
2019-02-17T19:48:55.865Z,96.30
2019-02-17T19:51:26.989Z,96.30
2019-02-17T19:54:01.145Z,96.40
2019-02-17T19:56:35.328Z,96.60
2019-02-17T19:59:13.053Z,96.80
2019-02-17T20:01:41.469Z,96.80
2019-02-17T20:04:17.370Z,96.70
2019-02-17T20:06:47.422Z,96.80
2019-02-17T20:09:18.574Z,97.00
2019-02-17T20:11:52.701Z,97.00
2019-02-17T20:14:21.121Z,97.00
2019-02-17T20:16:53.197Z,97.00
2019-02-17T20:19:25.691Z,96.90
2019-02-17T20:21:57.303Z,96.70
2019-02-17T20:24:25.721Z,96.70
2019-02-17T20:26:58.558Z,96.80
2019-02-17T20:29:35.057Z,96.60
2019-02-17T20:32:17.556Z,97.10
2019-02-17T20:34:45.994Z,97.00
2019-02-17T20:37:14.408Z,96.90
2019-02-17T20:39:42.839Z,96.80
2019-02-17T20:42:28.441Z,96.90
2019-02-17T20:44:58.502Z,97.10
2019-02-17T20:47:29.941Z,97.50
2019-02-17T20:50:05.261Z,97.60
2019-02-17T20:52:33.676Z,97.40
2019-02-17T20:55:13.894Z,97.50
2019-02-17T20:57:45.012Z,97.40
2019-02-17T21:00:18.569Z,97.50
2019-02-17T21:02:52.573Z,97.20
2019-02-17T21:05:26.850Z,97.40
2019-02-17T21:07:55.271Z,97.40
2019-02-17T21:10:29.935Z,97.50
2019-02-17T21:13:16.654Z,97.90
2019-02-17T21:15:45.088Z,97.80
2019-02-17T21:18:21.859Z,97.70
2019-02-17T21:20:53.341Z,98.00
2019-02-17T21:23:24.762Z,98.10
2019-02-17T21:25:53.193Z,98.10
2019-02-17T21:28:24.330Z,98.10
2019-02-17T21:30:53.549Z,98.20
2019-02-17T21:33:39.626Z,98.30
2019-02-17T21:36:09.697Z,97.90
2019-02-17T21:38:40.789Z,98.00
2019-02-17T21:41:10.861Z,98.10
2019-02-17T21:43:44.661Z,98.10
2019-02-17T21:46:20.762Z,98.40
2019-02-17T21:48:49.182Z,98.40
2019-02-17T21:51:17.617Z,98.20
2019-02-17T21:53:56.566Z,98.70
2019-02-17T21:56:34.021Z,98.50
2019-02-17T21:59:08.481Z,98.40
2019-02-17T22:01:38.541Z,98.50
2019-02-17T22:04:09.904Z,98.30
2019-02-17T22:06:42.122Z,98.60
2019-02-17T22:09:16.583Z,98.60
2019-02-17T22:11:51.045Z,98.50
2019-02-17T22:14:19.461Z,98.60
2019-02-17T22:17:03.046Z,98.90
2019-02-17T22:19:35.773Z,98.80
2019-02-17T22:22:21.294Z,98.80
2019-02-17T22:24:52.562Z,98.70
2019-02-17T22:27:22.646Z,99.00
2019-02-17T22:29:54.082Z,99.30
2019-02-17T22:32:24.158Z,99.30
2019-02-17T22:34:53.865Z,99.20
2019-02-17T22:37:23.929Z,99.20
2019-02-17T22:39:54.789Z,99.00
2019-02-17T22:42:33.807Z,99.10
2019-02-17T22:45:09.866Z,99.20
2019-02-17T22:47:38.536Z,99.50
2019-02-17T22:50:17.213Z,99.30
2019-02-17T22:52:45.954Z,99.30
2019-02-17T22:55:22.067Z,99.50
2019-02-17T22:57:51.146Z,99.40
2019-02-17T23:00:51.461Z,99.70
2019-02-17T23:03:24.321Z,99.90
2019-02-17T23:06:01.773Z,99.70
2019-02-17T23:08:30.204Z,99.80
2019-02-17T23:11:01.661Z,99.90
2019-02-17T23:13:30.405Z,99.90
2019-02-17T23:16:03.401Z,99.90
2019-02-17T23:18:36.706Z,99.90
2019-02-17T23:21:13.882Z,99.90
2019-02-17T23:23:42.555Z,99.90
2019-02-17T23:26:12.617Z,99.90
2019-02-17T23:28:43.958Z,99.80
2019-02-17T23:31:24.096Z,99.70
2019-02-17T23:33:52.590Z,99.70
2019-02-17T23:36:29.445Z,99.90
2019-02-17T23:38:57.893Z,99.80
2019-02-17T23:41:32.503Z,99.90
2019-02-17T23:44:02.573Z,99.90
2019-02-17T23:46:33.966Z,99.90
2019-02-17T23:49:02.409Z,99.90
2019-02-17T23:51:36.564Z,99.90
2019-02-17T23:54:18.553Z,99.90
2019-02-17T23:56:48.601Z,99.90
2019-02-17T23:59:19.939Z,99.90
